sensor_id;sensor_type;location;lat;lon;timestamp;P1;durP1;ratioP1;P2;durP2;ratioP2
42260;SDS011;27926;48.062;7.474;2022-12-18T00:01:28;159.48;;;30.55;;
42260;SDS011;27926;48.062;7.474;2022-12-18T00:03:57;133.32;;;32.30;;
42260;SDS011;27926;48.062;7.474;2022-12-18T00:06:23;180.48;;;31.73;;
42260;SDS011;27926;48.062;7.474;2022-12-18T00:08:48;211.20;;;33.15;;
42260;SDS011;27926;48.062;7.474;2022-12-18T00:11:14;166.00;;;34.75;;
42260;SDS011;27926;48.062;7.474;2022-12-18T00:13:40;169.18;;;32.25;;
42260;SDS011;27926;48.062;7.474;2022-12-18T00:16:12;147.55;;;36.42;;
42260;SDS011;27926;48.062;7.474;2022-12-18T00:18:38;133.80;;;33.60;;
42260;SDS011;27926;48.062;7.474;2022-12-18T00:21:04;138.48;;;34.88;;
42260;SDS011;27926;48.062;7.474;2022-12-18T00:23:31;154.18;;;34.95;;
42260;SDS011;27926;48.062;7.474;2022-12-18T00:25:58;154.57;;;32.20;;
42260;SDS011;27926;48.062;7.474;2022-12-18T00:28:25;149.07;;;33.60;;
42260;SDS011;27926;48.062;7.474;2022-12-18T00:30:49;119.50;;;32.00;;
42260;SDS011;27926;48.062;7.474;2022-12-18T00:33:15;141.93;;;32.03;;
42260;SDS011;27926;48.062;7.474;2022-12-18T00:35:39;161.37;;;31.43;;
42260;SDS011;27926;48.062;7.474;2022-12-18T00:38:04;117.33;;;30.97;;
42260;SDS011;27926;48.062;7.474;2022-12-18T00:42:54;133.90;;;29.75;;
42260;SDS011;27926;48.062;7.474;2022-12-18T00:45:19;127.10;;;31.87;;
42260;SDS011;27926;48.062;7.474;2022-12-18T00:47:44;276.97;;;36.40;;
42260;SDS011;27926;48.062;7.474;2022-12-18T00:50:09;144.98;;;31.65;;
42260;SDS011;27926;48.062;7.474;2022-12-18T00:52:34;137.15;;;30.60;;
42260;SDS011;27926;48.062;7.474;2022-12-18T00:54:58;166.77;;;31.37;;
42260;SDS011;27926;48.062;7.474;2022-12-18T00:57:23;129.40;;;30.47;;
42260;SDS011;27926;48.062;7.474;2022-12-18T00:59:47;189.10;;;32.57;;
42260;SDS011;27926;48.062;7.474;2022-12-18T01:02:12;247.87;;;32.63;;
42260;SDS011;27926;48.062;7.474;2022-12-18T01:04:37;142.83;;;31.97;;
42260;SDS011;27926;48.062;7.474;2022-12-18T01:07:01;174.53;;;34.27;;
42260;SDS011;27926;48.062;7.474;2022-12-18T01:09:26;153.60;;;32.27;;
42260;SDS011;27926;48.062;7.474;2022-12-18T01:11:50;155.30;;;29.77;;
42260;SDS011;27926;48.062;7.474;2022-12-18T01:14:15;209.10;;;31.60;;
42260;SDS011;27926;48.062;7.474;2022-12-18T01:16:40;198.80;;;31.20;;
42260;SDS011;27926;48.062;7.474;2022-12-18T01:19:04;155.00;;;32.33;;
42260;SDS011;27926;48.062;7.474;2022-12-18T01:21:29;146.00;;;31.23;;
42260;SDS011;27926;48.062;7.474;2022-12-18T01:23:54;188.50;;;32.73;;
42260;SDS011;27926;48.062;7.474;2022-12-18T01:26:20;203.38;;;31.70;;
42260;SDS011;27926;48.062;7.474;2022-12-18T01:28:44;133.73;;;32.25;;
42260;SDS011;27926;48.062;7.474;2022-12-18T01:36:31;156.52;;;31.58;;
42260;SDS011;27926;48.062;7.474;2022-12-18T01:39:05;123.80;;;30.52;;
42260;SDS011;27926;48.062;7.474;2022-12-18T01:41:32;149.20;;;33.30;;
42260;SDS011;27926;48.062;7.474;2022-12-18T01:49:47;193.30;;;33.27;;
42260;SDS011;27926;48.062;7.474;2022-12-18T01:52:12;159.40;;;32.30;;
42260;SDS011;27926;48.062;7.474;2022-12-18T01:54:38;197.18;;;40.72;;
42260;SDS011;27926;48.062;7.474;2022-12-18T01:57:02;149.00;;;34.10;;
42260;SDS011;27926;48.062;7.474;2022-12-18T01:59:27;132.90;;;31.10;;
42260;SDS011;27926;48.062;7.474;2022-12-18T02:01:55;175.32;;;32.17;;
42260;SDS011;27926;48.062;7.474;2022-12-18T02:06:46;131.45;;;30.60;;
42260;SDS011;27926;48.062;7.474;2022-12-18T02:09:31;199.45;;;39.47;;
42260;SDS011;27926;48.062;7.474;2022-12-18T02:12:11;170.02;;;32.97;;
42260;SDS011;27926;48.062;7.474;2022-12-18T02:14:49;151.77;;;34.67;;
42260;SDS011;27926;48.062;7.474;2022-12-18T02:20:25;136.57;;;31.58;;
42260;SDS011;27926;48.062;7.474;2022-12-18T02:25:40;183.38;;;32.90;;
42260;SDS011;27926;48.062;7.474;2022-12-18T02:28:28;150.98;;;31.17;;
42260;SDS011;27926;48.062;7.474;2022-12-18T02:30:58;179.57;;;29.70;;
42260;SDS011;27926;48.062;7.474;2022-12-18T02:33:27;193.15;;;32.60;;
42260;SDS011;27926;48.062;7.474;2022-12-18T02:35:54;129.18;;;31.38;;
42260;SDS011;27926;48.062;7.474;2022-12-18T02:38:21;139.35;;;28.50;;
42260;SDS011;27926;48.062;7.474;2022-12-18T02:40:47;132.25;;;32.90;;
42260;SDS011;27926;48.062;7.474;2022-12-18T02:43:14;172.68;;;33.50;;
42260;SDS011;27926;48.062;7.474;2022-12-18T02:45:53;139.50;;;33.90;;
42260;SDS011;27926;48.062;7.474;2022-12-18T02:48:24;146.30;;;31.92;;
42260;SDS011;27926;48.062;7.474;2022-12-18T02:51:10;149.43;;;32.63;;
42260;SDS011;27926;48.062;7.474;2022-12-18T02:53:46;124.95;;;31.60;;
42260;SDS011;27926;48.062;7.474;2022-12-18T02:56:21;163.45;;;33.38;;
42260;SDS011;27926;48.062;7.474;2022-12-18T03:01:32;147.32;;;34.05;;
42260;SDS011;27926;48.062;7.474;2022-12-18T03:04:20;150.48;;;32.42;;
42260;SDS011;27926;48.062;7.474;2022-12-18T03:06:54;114.55;;;32.50;;
42260;SDS011;27926;48.062;7.474;2022-12-18T03:09:29;139.35;;;35.88;;
42260;SDS011;27926;48.062;7.474;2022-12-18T03:11:58;125.85;;;33.42;;
42260;SDS011;27926;48.062;7.474;2022-12-18T03:14:46;140.55;;;32.25;;
42260;SDS011;27926;48.062;7.474;2022-12-18T03:17:26;135.85;;;31.60;;
42260;SDS011;27926;48.062;7.474;2022-12-18T03:19:54;129.20;;;31.77;;
42260;SDS011;27926;48.062;7.474;2022-12-18T03:22:23;138.18;;;33.55;;
42260;SDS011;27926;48.062;7.474;2022-12-18T03:24:49;129.73;;;33.00;;
42260;SDS011;27926;48.062;7.474;2022-12-18T03:27:17;143.05;;;35.53;;
42260;SDS011;27926;48.062;7.474;2022-12-18T03:29:55;152.52;;;35.65;;
42260;SDS011;27926;48.062;7.474;2022-12-18T03:32:31;127.22;;;31.55;;
42260;SDS011;27926;48.062;7.474;2022-12-18T03:35:21;150.23;;;32.65;;
42260;SDS011;27926;48.062;7.474;2022-12-18T03:37:50;130.43;;;34.38;;
42260;SDS011;27926;48.062;7.474;2022-12-18T03:40:15;151.60;;;33.40;;
42260;SDS011;27926;48.062;7.474;2022-12-18T03:42:49;120.95;;;32.90;;
42260;SDS011;27926;48.062;7.474;2022-12-18T03:45:24;158.77;;;36.58;;
42260;SDS011;27926;48.062;7.474;2022-12-18T03:55:43;151.70;;;34.70;;
42260;SDS011;27926;48.062;7.474;2022-12-18T03:58:08;154.52;;;38.65;;
42260;SDS011;27926;48.062;7.474;2022-12-18T04:00:37;169.00;;;34.25;;
42260;SDS011;27926;48.062;7.474;2022-12-18T04:03:02;154.43;;;35.15;;
42260;SDS011;27926;48.062;7.474;2022-12-18T04:05:29;117.80;;;32.05;;
42260;SDS011;27926;48.062;7.474;2022-12-18T04:07:56;154.32;;;36.00;;
42260;SDS011;27926;48.062;7.474;2022-12-18T04:10:21;159.57;;;36.17;;
42260;SDS011;27926;48.062;7.474;2022-12-18T04:12:46;158.97;;;37.57;;
42260;SDS011;27926;48.062;7.474;2022-12-18T04:15:11;136.23;;;34.30;;
42260;SDS011;27926;48.062;7.474;2022-12-18T04:17:36;128.13;;;35.28;;
42260;SDS011;27926;48.062;7.474;2022-12-18T04:20:02;151.07;;;35.53;;
42260;SDS011;27926;48.062;7.474;2022-12-18T04:22:27;134.23;;;36.13;;
42260;SDS011;27926;48.062;7.474;2022-12-18T04:24:52;107.72;;;32.72;;
42260;SDS011;27926;48.062;7.474;2022-12-18T04:27:17;125.20;;;32.23;;
42260;SDS011;27926;48.062;7.474;2022-12-18T04:29:42;149.93;;;35.28;;
42260;SDS011;27926;48.062;7.474;2022-12-18T04:32:06;121.70;;;32.57;;
42260;SDS011;27926;48.062;7.474;2022-12-18T04:34:31;128.32;;;31.77;;
42260;SDS011;27926;48.062;7.474;2022-12-18T04:36:56;132.30;;;33.03;;
42260;SDS011;27926;48.062;7.474;2022-12-18T04:39:20;101.33;;;30.03;;
42260;SDS011;27926;48.062;7.474;2022-12-18T04:41:45;109.73;;;30.27;;
42260;SDS011;27926;48.062;7.474;2022-12-18T04:44:10;112.33;;;31.00;;
42260;SDS011;27926;48.062;7.474;2022-12-18T04:46:35;124.03;;;33.40;;
42260;SDS011;27926;48.062;7.474;2022-12-18T04:48:59;131.63;;;32.43;;
42260;SDS011;27926;48.062;7.474;2022-12-18T04:51:24;131.33;;;32.20;;
42260;SDS011;27926;48.062;7.474;2022-12-18T04:53:49;112.50;;;30.50;;
42260;SDS011;27926;48.062;7.474;2022-12-18T04:56:14;115.67;;;32.80;;
42260;SDS011;27926;48.062;7.474;2022-12-18T04:58:40;122.07;;;36.53;;
42260;SDS011;27926;48.062;7.474;2022-12-18T05:01:05;101.80;;;31.02;;
42260;SDS011;27926;48.062;7.474;2022-12-18T05:03:31;143.38;;;32.83;;
42260;SDS011;27926;48.062;7.474;2022-12-18T05:05:56;110.43;;;34.27;;
42260;SDS011;27926;48.062;7.474;2022-12-18T05:08:20;122.97;;;29.97;;
42260;SDS011;27926;48.062;7.474;2022-12-18T05:10:45;114.90;;;30.47;;
42260;SDS011;27926;48.062;7.474;2022-12-18T05:13:09;119.03;;;32.33;;
42260;SDS011;27926;48.062;7.474;2022-12-18T05:15:34;98.53;;;28.83;;
42260;SDS011;27926;48.062;7.474;2022-12-18T05:17:59;126.70;;;32.20;;
42260;SDS011;27926;48.062;7.474;2022-12-18T05:20:24;111.25;;;28.75;;
42260;SDS011;27926;48.062;7.474;2022-12-18T05:22:49;129.15;;;30.88;;
42260;SDS011;27926;48.062;7.474;2022-12-18T05:25:14;134.52;;;32.78;;
42260;SDS011;27926;48.062;7.474;2022-12-18T05:27:39;97.83;;;29.93;;
42260;SDS011;27926;48.062;7.474;2022-12-18T05:30:04;139.03;;;32.50;;
42260;SDS011;27926;48.062;7.474;2022-12-18T05:32:29;104.60;;;31.08;;
42260;SDS011;27926;48.062;7.474;2022-12-18T05:34:53;104.90;;;31.50;;
42260;SDS011;27926;48.062;7.474;2022-12-18T05:37:18;112.00;;;30.37;;
42260;SDS011;27926;48.062;7.474;2022-12-18T05:39:43;115.00;;;32.57;;
42260;SDS011;27926;48.062;7.474;2022-12-18T05:42:07;96.03;;;28.80;;
42260;SDS011;27926;48.062;7.474;2022-12-18T05:44:32;114.10;;;33.17;;
42260;SDS011;27926;48.062;7.474;2022-12-18T05:46:56;125.60;;;32.50;;
42260;SDS011;27926;48.062;7.474;2022-12-18T05:49:21;94.90;;;26.83;;
42260;SDS011;27926;48.062;7.474;2022-12-18T05:51:46;122.30;;;32.07;;
42260;SDS011;27926;48.062;7.474;2022-12-18T05:54:10;106.17;;;31.07;;
42260;SDS011;27926;48.062;7.474;2022-12-18T05:56:35;115.43;;;30.93;;
42260;SDS011;27926;48.062;7.474;2022-12-18T05:58:59;123.57;;;33.00;;
42260;SDS011;27926;48.062;7.474;2022-12-18T06:01:25;136.10;;;35.00;;
42260;SDS011;27926;48.062;7.474;2022-12-18T06:03:50;122.88;;;33.00;;
42260;SDS011;27926;48.062;7.474;2022-12-18T06:06:19;157.87;;;36.60;;
42260;SDS011;27926;48.062;7.474;2022-12-18T06:08:46;141.32;;;36.88;;
42260;SDS011;27926;48.062;7.474;2022-12-18T06:11:11;149.70;;;35.72;;
42260;SDS011;27926;48.062;7.474;2022-12-18T06:13:36;152.93;;;36.63;;
42260;SDS011;27926;48.062;7.474;2022-12-18T06:16:02;158.05;;;37.53;;
42260;SDS011;27926;48.062;7.474;2022-12-18T06:18:30;129.38;;;37.35;;
42260;SDS011;27926;48.062;7.474;2022-12-18T06:20:55;174.43;;;39.03;;
42260;SDS011;27926;48.062;7.474;2022-12-18T06:23:20;124.82;;;32.95;;
42260;SDS011;27926;48.062;7.474;2022-12-18T06:25:45;113.13;;;29.27;;
42260;SDS011;27926;48.062;7.474;2022-12-18T06:28:09;128.03;;;33.53;;
42260;SDS011;27926;48.062;7.474;2022-12-18T06:30:34;135.23;;;35.57;;
42260;SDS011;27926;48.062;7.474;2022-12-18T06:33:00;137.07;;;35.65;;
42260;SDS011;27926;48.062;7.474;2022-12-18T06:35:24;146.77;;;36.00;;
42260;SDS011;27926;48.062;7.474;2022-12-18T06:37:49;143.07;;;37.53;;
42260;SDS011;27926;48.062;7.474;2022-12-18T06:40:14;145.03;;;39.87;;
42260;SDS011;27926;48.062;7.474;2022-12-18T06:42:38;140.43;;;38.23;;
42260;SDS011;27926;48.062;7.474;2022-12-18T06:45:03;125.80;;;36.43;;
42260;SDS011;27926;48.062;7.474;2022-12-18T06:47:28;134.50;;;35.25;;
42260;SDS011;27926;48.062;7.474;2022-12-18T06:49:52;134.63;;;37.63;;
42260;SDS011;27926;48.062;7.474;2022-12-18T06:52:17;149.43;;;38.30;;
42260;SDS011;27926;48.062;7.474;2022-12-18T06:54:42;137.60;;;35.10;;
42260;SDS011;27926;48.062;7.474;2022-12-18T06:57:06;128.90;;;34.33;;
42260;SDS011;27926;48.062;7.474;2022-12-18T06:59:31;144.27;;;38.03;;
42260;SDS011;27926;48.062;7.474;2022-12-18T07:01:55;142.77;;;36.73;;
42260;SDS011;27926;48.062;7.474;2022-12-18T07:04:20;120.17;;;36.17;;
42260;SDS011;27926;48.062;7.474;2022-12-18T07:09:10;137.55;;;33.42;;
42260;SDS011;27926;48.062;7.474;2022-12-18T07:11:35;141.20;;;35.67;;
42260;SDS011;27926;48.062;7.474;2022-12-18T07:14:00;120.70;;;36.57;;
42260;SDS011;27926;48.062;7.474;2022-12-18T07:16:24;142.20;;;37.87;;
42260;SDS011;27926;48.062;7.474;2022-12-18T07:18:49;142.77;;;38.10;;
42260;SDS011;27926;48.062;7.474;2022-12-18T07:21:15;125.17;;;35.13;;
42260;SDS011;27926;48.062;7.474;2022-12-18T07:23:41;133.25;;;35.05;;
42260;SDS011;27926;48.062;7.474;2022-12-18T07:26:09;132.87;;;34.40;;
42260;SDS011;27926;48.062;7.474;2022-12-18T07:28:36;111.45;;;31.67;;
42260;SDS011;27926;48.062;7.474;2022-12-18T07:31:11;149.77;;;37.72;;
42260;SDS011;27926;48.062;7.474;2022-12-18T07:33:38;121.00;;;36.17;;
42260;SDS011;27926;48.062;7.474;2022-12-18T07:36:03;135.87;;;37.40;;
42260;SDS011;27926;48.062;7.474;2022-12-18T07:38:29;127.20;;;37.63;;
42260;SDS011;27926;48.062;7.474;2022-12-18T07:40:54;137.30;;;35.83;;
42260;SDS011;27926;48.062;7.474;2022-12-18T07:43:24;138.02;;;36.08;;
42260;SDS011;27926;48.062;7.474;2022-12-18T07:45:49;142.83;;;35.60;;
42260;SDS011;27926;48.062;7.474;2022-12-18T07:48:14;125.28;;;34.42;;
42260;SDS011;27926;48.062;7.474;2022-12-18T07:50:39;130.53;;;35.77;;
42260;SDS011;27926;48.062;7.474;2022-12-18T07:53:03;139.47;;;34.53;;
42260;SDS011;27926;48.062;7.474;2022-12-18T07:55:29;129.63;;;33.15;;
42260;SDS011;27926;48.062;7.474;2022-12-18T08:00:18;127.65;;;34.90;;
42260;SDS011;27926;48.062;7.474;2022-12-18T08:02:43;135.17;;;37.17;;
42260;SDS011;27926;48.062;7.474;2022-12-18T08:05:08;119.43;;;33.67;;
42260;SDS011;27926;48.062;7.474;2022-12-18T08:07:33;126.23;;;35.70;;
42260;SDS011;27926;48.062;7.474;2022-12-18T08:09:57;118.90;;;31.70;;
42260;SDS011;27926;48.062;7.474;2022-12-18T08:12:22;135.10;;;39.50;;
42260;SDS011;27926;48.062;7.474;2022-12-18T08:14:47;149.33;;;41.57;;
42260;SDS011;27926;48.062;7.474;2022-12-18T08:17:11;120.73;;;37.07;;
42260;SDS011;27926;48.062;7.474;2022-12-18T08:19:39;126.93;;;37.45;;
42260;SDS011;27926;48.062;7.474;2022-12-18T08:22:03;141.87;;;34.57;;
42260;SDS011;27926;48.062;7.474;2022-12-18T08:24:28;131.87;;;37.20;;
42260;SDS011;27926;48.062;7.474;2022-12-18T08:26:52;119.43;;;36.50;;
42260;SDS011;27926;48.062;7.474;2022-12-18T08:29:17;126.67;;;36.63;;
42260;SDS011;27926;48.062;7.474;2022-12-18T08:31:42;129.93;;;34.87;;
42260;SDS011;27926;48.062;7.474;2022-12-18T08:34:07;123.40;;;36.17;;
42260;SDS011;27926;48.062;7.474;2022-12-18T08:36:32;114.80;;;34.38;;
42260;SDS011;27926;48.062;7.474;2022-12-18T08:38:57;117.60;;;34.93;;
42260;SDS011;27926;48.062;7.474;2022-12-18T08:41:21;110.13;;;33.17;;
42260;SDS011;27926;48.062;7.474;2022-12-18T08:43:46;109.20;;;35.03;;
42260;SDS011;27926;48.062;7.474;2022-12-18T08:46:39;105.43;;;32.22;;
42260;SDS011;27926;48.062;7.474;2022-12-18T08:49:05;122.82;;;35.45;;
42260;SDS011;27926;48.062;7.474;2022-12-18T08:53:56;117.57;;;32.78;;
42260;SDS011;27926;48.062;7.474;2022-12-18T08:56:20;118.67;;;35.30;;
42260;SDS011;27926;48.062;7.474;2022-12-18T08:58:45;118.10;;;33.30;;
42260;SDS011;27926;48.062;7.474;2022-12-18T09:01:11;111.88;;;33.72;;
42260;SDS011;27926;48.062;7.474;2022-12-18T09:03:37;129.07;;;34.25;;
42260;SDS011;27926;48.062;7.474;2022-12-18T09:06:02;128.80;;;37.95;;
42260;SDS011;27926;48.062;7.474;2022-12-18T09:08:28;124.68;;;38.15;;
42260;SDS011;27926;48.062;7.474;2022-12-18T09:10:53;121.18;;;36.55;;
42260;SDS011;27926;48.062;7.474;2022-12-18T09:13:18;104.10;;;35.15;;
42260;SDS011;27926;48.062;7.474;2022-12-18T09:15:43;120.13;;;35.47;;
42260;SDS011;27926;48.062;7.474;2022-12-18T09:18:09;99.63;;;31.70;;
42260;SDS011;27926;48.062;7.474;2022-12-18T09:20:34;118.70;;;35.10;;
42260;SDS011;27926;48.062;7.474;2022-12-18T09:23:00;129.13;;;42.40;;
42260;SDS011;27926;48.062;7.474;2022-12-18T09:25:24;110.50;;;33.97;;
42260;SDS011;27926;48.062;7.474;2022-12-18T09:27:49;115.23;;;33.80;;
42260;SDS011;27926;48.062;7.474;2022-12-18T09:30:13;91.07;;;32.20;;
42260;SDS011;27926;48.062;7.474;2022-12-18T09:32:38;104.80;;;32.67;;
42260;SDS011;27926;48.062;7.474;2022-12-18T09:35:02;103.47;;;34.37;;
42260;SDS011;27926;48.062;7.474;2022-12-18T09:37:27;102.03;;;33.67;;
42260;SDS011;27926;48.062;7.474;2022-12-18T09:39:52;100.60;;;34.67;;
42260;SDS011;27926;48.062;7.474;2022-12-18T09:42:20;103.53;;;33.20;;
42260;SDS011;27926;48.062;7.474;2022-12-18T09:44:47;109.55;;;35.38;;
42260;SDS011;27926;48.062;7.474;2022-12-18T09:47:25;99.55;;;34.67;;
42260;SDS011;27926;48.062;7.474;2022-12-18T09:49:58;104.53;;;34.63;;
42260;SDS011;27926;48.062;7.474;2022-12-18T09:55:10;109.07;;;36.83;;
42260;SDS011;27926;48.062;7.474;2022-12-18T09:57:47;103.05;;;32.80;;
42260;SDS011;27926;48.062;7.474;2022-12-18T10:00:17;153.63;;;50.83;;
42260;SDS011;27926;48.062;7.474;2022-12-18T10:02:44;117.80;;;37.70;;
42260;SDS011;27926;48.062;7.474;2022-12-18T10:05:11;124.20;;;37.17;;
42260;SDS011;27926;48.062;7.474;2022-12-18T10:10:38;108.20;;;35.60;;
42260;SDS011;27926;48.062;7.474;2022-12-18T10:13:15;97.97;;;33.90;;
42260;SDS011;27926;48.062;7.474;2022-12-18T10:26:46;102.28;;;35.88;;
42260;SDS011;27926;48.062;7.474;2022-12-18T10:29:12;108.57;;;34.83;;
42260;SDS011;27926;48.062;7.474;2022-12-18T10:31:37;97.15;;;34.78;;
42260;SDS011;27926;48.062;7.474;2022-12-18T10:34:02;101.60;;;32.93;;
42260;SDS011;27926;48.062;7.474;2022-12-18T10:36:26;129.30;;;48.97;;
42260;SDS011;27926;48.062;7.474;2022-12-18T10:38:51;110.07;;;37.93;;
42260;SDS011;27926;48.062;7.474;2022-12-18T10:43:50;103.80;;;34.63;;
42260;SDS011;27926;48.062;7.474;2022-12-18T10:46:36;101.93;;;34.72;;
42260;SDS011;27926;48.062;7.474;2022-12-18T10:49:01;99.30;;;31.63;;
42260;SDS011;27926;48.062;7.474;2022-12-18T10:54:15;96.15;;;33.58;;
42260;SDS011;27926;48.062;7.474;2022-12-18T10:56:38;90.78;;;33.95;;
42260;SDS011;27926;48.062;7.474;2022-12-18T10:59:03;94.30;;;33.73;;
42260;SDS011;27926;48.062;7.474;2022-12-18T11:01:46;92.47;;;34.72;;
42260;SDS011;27926;48.062;7.474;2022-12-18T11:04:13;97.35;;;33.47;;
42260;SDS011;27926;48.062;7.474;2022-12-18T11:07:14;103.82;;;35.85;;
42260;SDS011;27926;48.062;7.474;2022-12-18T11:09:35;108.82;;;35.67;;
42260;SDS011;27926;48.062;7.474;2022-12-18T11:12:19;98.15;;;35.20;;
42260;SDS011;27926;48.062;7.474;2022-12-18T11:14:50;102.95;;;34.38;;
42260;SDS011;27926;48.062;7.474;2022-12-18T11:19:55;97.07;;;32.45;;
42260;SDS011;27926;48.062;7.474;2022-12-18T11:25:02;92.22;;;33.97;;
42260;SDS011;27926;48.062;7.474;2022-12-18T11:27:34;97.95;;;33.53;;
42260;SDS011;27926;48.062;7.474;2022-12-18T11:30:13;103.47;;;36.83;;
42260;SDS011;27926;48.062;7.474;2022-12-18T11:38:16;95.85;;;36.15;;
42260;SDS011;27926;48.062;7.474;2022-12-18T11:40:43;105.72;;;35.90;;
42260;SDS011;27926;48.062;7.474;2022-12-18T11:43:26;95.35;;;35.38;;
42260;SDS011;27926;48.062;7.474;2022-12-18T11:46:13;97.15;;;32.67;;
42260;SDS011;27926;48.062;7.474;2022-12-18T11:48:49;92.85;;;34.03;;
42260;SDS011;27926;48.062;7.474;2022-12-18T11:51:31;100.30;;;33.65;;
42260;SDS011;27926;48.062;7.474;2022-12-18T11:54:00;99.60;;;36.15;;
42260;SDS011;27926;48.062;7.474;2022-12-18T11:57:09;93.22;;;32.70;;
42260;SDS011;27926;48.062;7.474;2022-12-18T12:02:29;91.28;;;32.10;;
42260;SDS011;27926;48.062;7.474;2022-12-18T12:05:09;87.18;;;32.40;;
42260;SDS011;27926;48.062;7.474;2022-12-18T12:19:13;92.45;;;33.35;;
42260;SDS011;27926;48.062;7.474;2022-12-18T12:21:48;91.13;;;33.53;;
42260;SDS011;27926;48.062;7.474;2022-12-18T12:30:03;96.63;;;35.03;;
42260;SDS011;27926;48.062;7.474;2022-12-18T12:40:19;106.35;;;37.38;;
42260;SDS011;27926;48.062;7.474;2022-12-18T12:42:51;96.97;;;35.25;;
42260;SDS011;27926;48.062;7.474;2022-12-18T12:48:19;110.97;;;37.95;;
42260;SDS011;27926;48.062;7.474;2022-12-18T12:50:45;113.15;;;40.90;;
42260;SDS011;27926;48.062;7.474;2022-12-18T12:53:16;118.40;;;40.22;;
42260;SDS011;27926;48.062;7.474;2022-12-18T12:55:51;111.63;;;36.83;;
42260;SDS011;27926;48.062;7.474;2022-12-18T12:58:22;106.20;;;36.50;;
42260;SDS011;27926;48.062;7.474;2022-12-18T13:01:06;117.35;;;37.55;;
42260;SDS011;27926;48.062;7.474;2022-12-18T13:06:53;95.18;;;34.50;;
42260;SDS011;27926;48.062;7.474;2022-12-18T13:09:06;105.78;;;37.17;;
42260;SDS011;27926;48.062;7.474;2022-12-18T13:11:38;112.97;;;37.77;;
42260;SDS011;27926;48.062;7.474;2022-12-18T13:14:30;101.13;;;36.03;;
42260;SDS011;27926;48.062;7.474;2022-12-18T13:19:49;124.47;;;40.23;;
42260;SDS011;27926;48.062;7.474;2022-12-18T13:22:29;110.35;;;37.50;;
42260;SDS011;27926;48.062;7.474;2022-12-18T13:24:59;124.32;;;40.95;;
42260;SDS011;27926;48.062;7.474;2022-12-18T13:35:41;105.55;;;38.08;;
42260;SDS011;27926;48.062;7.474;2022-12-18T13:40:59;111.70;;;37.03;;
42260;SDS011;27926;48.062;7.474;2022-12-18T13:46:28;121.53;;;39.15;;
42260;SDS011;27926;48.062;7.474;2022-12-18T13:54:00;126.97;;;41.72;;
42260;SDS011;27926;48.062;7.474;2022-12-18T13:56:32;122.72;;;41.05;;
42260;SDS011;27926;48.062;7.474;2022-12-18T13:59:11;117.90;;;39.35;;
42260;SDS011;27926;48.062;7.474;2022-12-18T14:06:50;116.80;;;41.42;;
42260;SDS011;27926;48.062;7.474;2022-12-18T14:09:27;123.10;;;40.88;;
42260;SDS011;27926;48.062;7.474;2022-12-18T14:11:54;122.55;;;41.65;;
42260;SDS011;27926;48.062;7.474;2022-12-18T14:14:41;123.93;;;39.13;;
42260;SDS011;27926;48.062;7.474;2022-12-18T14:17:11;120.80;;;40.67;;
42260;SDS011;27926;48.062;7.474;2022-12-18T14:19:36;128.85;;;41.58;;
42260;SDS011;27926;48.062;7.474;2022-12-18T14:22:01;126.40;;;42.67;;
42260;SDS011;27926;48.062;7.474;2022-12-18T14:24:25;128.80;;;42.33;;
42260;SDS011;27926;48.062;7.474;2022-12-18T14:26:51;151.98;;;45.50;;
42260;SDS011;27926;48.062;7.474;2022-12-18T14:29:26;122.67;;;42.23;;
42260;SDS011;27926;48.062;7.474;2022-12-18T14:34:41;132.93;;;41.63;;
42260;SDS011;27926;48.062;7.474;2022-12-18T14:37:05;118.53;;;41.80;;
42260;SDS011;27926;48.062;7.474;2022-12-18T14:39:35;135.70;;;42.13;;
42260;SDS011;27926;48.062;7.474;2022-12-18T14:41:59;137.13;;;44.07;;
42260;SDS011;27926;48.062;7.474;2022-12-18T14:44:24;156.00;;;45.17;;
42260;SDS011;27926;48.062;7.474;2022-12-18T14:46:49;149.23;;;46.30;;
42260;SDS011;27926;48.062;7.474;2022-12-18T14:51:48;134.00;;;42.65;;
42260;SDS011;27926;48.062;7.474;2022-12-18T14:54:16;146.85;;;43.50;;
42260;SDS011;27926;48.062;7.474;2022-12-18T14:56:46;151.88;;;44.10;;
42260;SDS011;27926;48.062;7.474;2022-12-18T14:59:13;141.32;;;44.60;;
42260;SDS011;27926;48.062;7.474;2022-12-18T15:01:48;135.40;;;42.97;;
42260;SDS011;27926;48.062;7.474;2022-12-18T15:04:29;130.13;;;41.33;;
42260;SDS011;27926;48.062;7.474;2022-12-18T15:09:35;128.98;;;39.88;;
42260;SDS011;27926;48.062;7.474;2022-12-18T15:12:00;125.22;;;41.20;;
42260;SDS011;27926;48.062;7.474;2022-12-18T15:14:39;165.52;;;45.22;;
42260;SDS011;27926;48.062;7.474;2022-12-18T15:17:05;162.82;;;44.75;;
42260;SDS011;27926;48.062;7.474;2022-12-18T15:19:42;136.43;;;42.50;;
42260;SDS011;27926;48.062;7.474;2022-12-18T15:22:27;156.05;;;44.05;;
42260;SDS011;27926;48.062;7.474;2022-12-18T15:24:55;148.93;;;45.40;;
42260;SDS011;27926;48.062;7.474;2022-12-18T15:27:31;149.88;;;44.67;;
42260;SDS011;27926;48.062;7.474;2022-12-18T15:32:33;157.27;;;45.28;;
42260;SDS011;27926;48.062;7.474;2022-12-18T15:37:35;148.50;;;42.58;;
42260;SDS011;27926;48.062;7.474;2022-12-18T15:40:03;153.82;;;44.38;;
42260;SDS011;27926;48.062;7.474;2022-12-18T15:42:28;149.57;;;45.55;;
42260;SDS011;27926;48.062;7.474;2022-12-18T15:45:12;181.38;;;46.78;;
42260;SDS011;27926;48.062;7.474;2022-12-18T15:47:37;144.20;;;44.28;;
42260;SDS011;27926;48.062;7.474;2022-12-18T15:50:01;174.53;;;47.97;;
42260;SDS011;27926;48.062;7.474;2022-12-18T15:52:26;170.20;;;48.67;;
42260;SDS011;27926;48.062;7.474;2022-12-18T15:54:51;168.03;;;47.47;;
42260;SDS011;27926;48.062;7.474;2022-12-18T15:57:34;156.73;;;46.75;;
42260;SDS011;27926;48.062;7.474;2022-12-18T15:59:59;160.13;;;45.90;;
42260;SDS011;27926;48.062;7.474;2022-12-18T16:02:24;151.80;;;45.93;;
42260;SDS011;27926;48.062;7.474;2022-12-18T16:04:52;159.15;;;44.95;;
42260;SDS011;27926;48.062;7.474;2022-12-18T16:07:18;148.02;;;42.60;;
42260;SDS011;27926;48.062;7.474;2022-12-18T16:09:43;158.63;;;46.07;;
42260;SDS011;27926;48.062;7.474;2022-12-18T16:12:11;170.52;;;48.00;;
42260;SDS011;27926;48.062;7.474;2022-12-18T16:14:41;174.13;;;48.22;;
42260;SDS011;27926;48.062;7.474;2022-12-18T16:17:08;193.37;;;48.37;;
42260;SDS011;27926;48.062;7.474;2022-12-18T16:19:34;200.70;;;50.75;;
42260;SDS011;27926;48.062;7.474;2022-12-18T16:21:58;195.60;;;53.60;;
42260;SDS011;27926;48.062;7.474;2022-12-18T16:24:24;191.57;;;52.87;;
42260;SDS011;27926;48.062;7.474;2022-12-18T16:26:51;190.88;;;50.80;;
42260;SDS011;27926;48.062;7.474;2022-12-18T16:29:17;193.88;;;50.42;;
42260;SDS011;27926;48.062;7.474;2022-12-18T16:31:42;192.60;;;54.42;;
42260;SDS011;27926;48.062;7.474;2022-12-18T16:36:35;205.45;;;54.25;;
42260;SDS011;27926;48.062;7.474;2022-12-18T16:39:03;204.80;;;52.23;;
42260;SDS011;27926;48.062;7.474;2022-12-18T16:41:27;198.65;;;53.97;;
42260;SDS011;27926;48.062;7.474;2022-12-18T16:43:55;201.23;;;54.40;;
42260;SDS011;27926;48.062;7.474;2022-12-18T16:46:19;200.90;;;52.50;;